createdAt,value
2018-07-07T00:01:50.134Z,20.80
2018-07-07T00:04:19.377Z,20.80
2018-07-07T00:06:48.601Z,20.80
2018-07-07T00:09:17.845Z,20.80
2018-07-07T00:11:47.121Z,20.70
2018-07-07T00:14:16.365Z,20.60
2018-07-07T00:16:45.601Z,20.60
2018-07-07T00:19:15.464Z,20.70
2018-07-07T00:21:45.189Z,20.60
2018-07-07T00:24:14.808Z,20.50
2018-07-07T00:26:44.112Z,20.50
2018-07-07T00:29:13.413Z,20.40
2018-07-07T00:31:42.964Z,20.30
2018-07-07T00:34:12.222Z,20.30
2018-07-07T00:36:41.484Z,20.30
2018-07-07T00:39:10.859Z,20.10
2018-07-07T00:41:40.536Z,20.00
2018-07-07T00:44:09.756Z,20.00
2018-07-07T00:46:38.985Z,20.00
2018-07-07T00:49:08.381Z,19.90
2018-07-07T00:51:37.605Z,19.90
2018-07-07T00:54:06.891Z,19.80
2018-07-07T00:56:36.194Z,19.80
2018-07-07T00:59:05.556Z,19.70
2018-07-07T01:01:34.820Z,19.60
2018-07-07T01:04:04.384Z,19.60
2018-07-07T01:06:34.105Z,19.50
2018-07-07T01:09:03.768Z,19.50
2018-07-07T01:11:33.040Z,19.60
2018-07-07T01:14:02.286Z,19.50
2018-07-07T01:16:31.611Z,19.40
2018-07-07T01:19:00.854Z,19.40
2018-07-07T01:21:30.473Z,19.40
2018-07-07T01:23:59.685Z,19.40
2018-07-07T01:26:29.309Z,19.40
2018-07-07T01:28:58.531Z,19.30
2018-07-07T01:31:27.744Z,19.20
2018-07-07T01:33:57.213Z,19.10
2018-07-07T01:36:26.450Z,19.00
2018-07-07T01:38:55.665Z,19.00
2018-07-07T01:41:24.913Z,18.90
2018-07-07T01:43:54.145Z,18.90
2018-07-07T01:46:23.356Z,18.90
2018-07-07T01:48:52.927Z,19.00
2018-07-07T01:51:22.168Z,19.10
2018-07-07T01:53:51.388Z,19.20
2018-07-07T01:56:20.638Z,19.20
2018-07-07T01:58:49.851Z,19.30
2018-07-07T02:01:19.272Z,19.30
2018-07-07T02:03:48.566Z,19.40
2018-07-07T02:06:17.854Z,19.40
2018-07-07T02:08:47.065Z,19.40
2018-07-07T02:13:45.425Z,19.40
2018-07-07T02:16:14.664Z,19.40
2018-07-07T02:21:12.709Z,19.50
2018-07-07T02:23:41.917Z,19.50
2018-07-07T02:26:11.189Z,19.40
2018-07-07T02:28:40.396Z,19.40
2018-07-07T02:31:09.837Z,19.30
2018-07-07T02:33:39.514Z,19.20
2018-07-07T02:36:09.197Z,19.10
2018-07-07T02:38:38.469Z,19.10
2018-07-07T02:41:07.749Z,19.10
2018-07-07T02:43:36.968Z,19.10
2018-07-07T02:48:34.980Z,19.00
2018-07-07T02:51:04.229Z,18.90
2018-07-07T02:53:33.458Z,18.80
2018-07-07T02:56:03.222Z,18.70
2018-07-07T02:58:32.436Z,18.80
2018-07-07T03:01:01.669Z,18.80
2018-07-07T03:03:30.937Z,18.80
2018-07-07T03:06:00.594Z,18.80
2018-07-07T03:08:29.846Z,18.70
2018-07-07T03:10:59.169Z,18.80
2018-07-07T03:13:28.405Z,18.80
2018-07-07T03:15:57.649Z,18.80
2018-07-07T03:18:27.300Z,18.80
2018-07-07T03:20:56.504Z,18.90
2018-07-07T03:23:25.773Z,18.90
2018-07-07T03:25:55.028Z,19.00
2018-07-07T03:28:24.262Z,18.90
2018-07-07T03:30:53.473Z,19.00
2018-07-07T03:33:22.753Z,18.90
2018-07-07T03:35:52.005Z,18.90
2018-07-07T03:38:21.746Z,18.90
2018-07-07T03:40:51.068Z,19.00
2018-07-07T03:43:20.313Z,19.00
2018-07-07T03:45:49.532Z,18.90
2018-07-07T03:48:18.789Z,18.90
2018-07-07T03:53:16.810Z,18.80
2018-07-07T03:55:46.076Z,18.80
2018-07-07T03:58:15.317Z,18.80
2018-07-07T04:00:44.729Z,18.80
2018-07-07T04:03:14.721Z,18.80
2018-07-07T04:05:43.953Z,18.80
2018-07-07T04:08:13.160Z,18.80
2018-07-07T04:10:42.433Z,18.90
2018-07-07T04:13:11.653Z,18.90
2018-07-07T04:15:40.888Z,18.90
2018-07-07T04:18:10.280Z,18.90
2018-07-07T04:20:39.529Z,18.90
2018-07-07T04:23:08.774Z,18.90
2018-07-07T04:25:38.359Z,18.80
2018-07-07T04:28:07.893Z,18.90
2018-07-07T04:30:37.188Z,18.80
2018-07-07T04:33:06.442Z,18.90
2018-07-07T04:35:35.941Z,19.00
2018-07-07T04:38:05.212Z,19.00
2018-07-07T04:40:35.173Z,19.00
2018-07-07T04:43:04.449Z,19.00
2018-07-07T04:45:33.739Z,19.00
2018-07-07T04:48:03.916Z,19.10
2018-07-07T04:50:33.141Z,19.10
2018-07-07T04:53:02.373Z,19.20
2018-07-07T04:55:31.916Z,19.20
2018-07-07T04:58:01.281Z,19.20
2018-07-07T05:00:30.596Z,19.20
2018-07-07T05:03:00.550Z,19.20
2018-07-07T05:05:29.829Z,19.30
2018-07-07T05:07:59.069Z,19.30
2018-07-07T05:10:28.809Z,19.30
2018-07-07T05:12:58.030Z,19.30
2018-07-07T05:15:27.342Z,19.40
2018-07-07T05:17:56.559Z,19.40
2018-07-07T05:20:25.961Z,19.30
2018-07-07T05:22:55.213Z,19.40
2018-07-07T05:25:24.737Z,19.40
2018-07-07T05:27:53.980Z,19.50
2018-07-07T05:30:23.216Z,19.50
2018-07-07T05:32:52.840Z,19.60
2018-07-07T05:35:22.065Z,19.60
2018-07-07T05:37:51.297Z,19.60
2018-07-07T05:40:20.631Z,19.60
2018-07-07T05:42:50.232Z,19.70
2018-07-07T05:45:19.480Z,19.60
2018-07-07T05:47:48.769Z,19.50
2018-07-07T05:50:17.985Z,19.50
2018-07-07T05:52:47.208Z,19.60
2018-07-07T05:55:16.605Z,19.60
2018-07-07T05:57:45.837Z,19.60
2018-07-07T06:00:15.647Z,19.70
2018-07-07T06:02:44.992Z,19.80
2018-07-07T06:05:14.257Z,19.90
2018-07-07T06:07:43.496Z,19.90
2018-07-07T06:10:12.740Z,20.00
2018-07-07T06:12:41.989Z,20.00
2018-07-07T06:15:11.266Z,20.10
2018-07-07T06:17:40.608Z,20.00
2018-07-07T06:20:09.845Z,19.90
2018-07-07T06:22:39.089Z,20.00
2018-07-07T06:25:08.504Z,20.10
2018-07-07T06:27:37.731Z,20.10
2018-07-07T06:30:07.277Z,20.20
2018-07-07T06:32:36.562Z,20.20
2018-07-07T06:35:05.883Z,20.30
2018-07-07T06:37:35.105Z,20.40
2018-07-07T06:40:05.324Z,20.40
2018-07-07T06:42:34.537Z,20.40
2018-07-07T06:45:04.525Z,20.50
2018-07-07T06:47:33.784Z,20.60
2018-07-07T06:50:03.060Z,20.60
2018-07-07T06:52:32.465Z,20.70
2018-07-07T06:55:02.030Z,20.70
2018-07-07T06:57:31.333Z,20.80
2018-07-07T07:00:00.601Z,20.90
2018-07-07T07:02:30.434Z,20.90
2018-07-07T07:04:59.676Z,21.00
2018-07-07T07:07:28.902Z,21.00
2018-07-07T07:09:58.305Z,21.00
2018-07-07T07:12:27.540Z,21.10
2018-07-07T07:14:56.810Z,21.10
2018-07-07T07:17:26.085Z,21.20
2018-07-07T07:19:55.603Z,21.20
2018-07-07T07:24:54.252Z,21.50
2018-07-07T07:27:23.448Z,21.60
2018-07-07T07:29:52.861Z,21.70
2018-07-07T07:32:23.417Z,21.80
2018-07-07T07:34:52.962Z,21.80
2018-07-07T07:37:22.236Z,21.80
2018-07-07T07:39:51.545Z,21.80
2018-07-07T07:42:20.761Z,21.80
2018-07-07T07:44:50.160Z,21.70
2018-07-07T07:47:21.077Z,21.70
2018-07-07T07:49:50.337Z,21.60
2018-07-07T07:52:20.113Z,21.50
2018-07-07T07:54:49.433Z,21.50
2018-07-07T07:57:18.817Z,21.40
2018-07-07T07:59:48.156Z,21.30
2018-07-07T08:02:17.403Z,21.30
2018-07-07T08:04:47.073Z,21.30
2018-07-07T08:07:22.734Z,21.30
2018-07-07T08:09:53.048Z,21.30
2018-07-07T08:12:22.362Z,21.40
2018-07-07T08:14:51.937Z,21.40
2018-07-07T08:17:21.252Z,21.40
2018-07-07T08:19:50.457Z,21.40
2018-07-07T08:22:20.768Z,21.40
2018-07-07T08:24:50.116Z,21.50
2018-07-07T08:27:19.643Z,21.60
2018-07-07T08:29:49.061Z,21.60
2018-07-07T08:32:20.445Z,21.70
2018-07-07T08:34:49.722Z,21.80
2018-07-07T08:37:19.085Z,21.80
2018-07-07T08:39:49.062Z,21.90
2018-07-07T08:42:18.677Z,22.00
2018-07-07T08:44:48.239Z,22.00
2018-07-07T08:47:17.839Z,22.00
2018-07-07T08:49:47.440Z,22.10
2018-07-07T08:52:17.169Z,22.10
2018-07-07T08:54:46.581Z,22.20
2018-07-07T08:57:16.068Z,22.20
2018-07-07T08:59:45.344Z,22.20
2018-07-07T09:02:14.599Z,22.30
2018-07-07T09:04:44.010Z,22.30
2018-07-07T09:07:14.388Z,22.40
2018-07-07T09:09:43.616Z,22.40
2018-07-07T09:12:12.921Z,22.50
2018-07-07T09:14:42.320Z,22.50
2018-07-07T09:17:11.794Z,22.50
2018-07-07T09:19:41.245Z,22.60
2018-07-07T09:22:11.143Z,22.60
2018-07-07T09:24:40.441Z,22.70
2018-07-07T09:27:09.733Z,22.70
2018-07-07T09:29:39.184Z,22.70
2018-07-07T09:32:08.409Z,22.70
2018-07-07T09:34:38.116Z,22.70
2018-07-07T09:37:07.608Z,22.70
2018-07-07T09:44:35.010Z,23.00
2018-07-07T09:47:04.664Z,23.00
2018-07-07T09:49:33.905Z,23.10
2018-07-07T09:52:04.237Z,23.20
2018-07-07T09:54:33.767Z,23.20
2018-07-07T09:57:03.402Z,23.20
2018-07-07T09:59:33.204Z,23.30
2018-07-07T10:02:02.593Z,23.30
2018-07-07T10:04:31.846Z,23.30
2018-07-07T10:07:01.129Z,23.40
2018-07-07T10:09:30.490Z,23.50
2018-07-07T10:11:59.800Z,23.50
2018-07-07T10:14:29.124Z,23.60
2018-07-07T10:16:58.445Z,23.70
2018-07-07T10:19:27.673Z,23.80
2018-07-07T10:21:57.107Z,23.90
2018-07-07T10:24:26.949Z,23.90
2018-07-07T10:26:56.253Z,24.00
2018-07-07T10:29:25.521Z,24.10
2018-07-07T10:31:54.843Z,24.10
2018-07-07T10:34:24.140Z,24.20
2018-07-07T10:36:53.737Z,24.30
2018-07-07T10:39:24.241Z,24.40
2018-07-07T10:41:53.589Z,24.50
2018-07-07T10:44:22.973Z,24.50
2018-07-07T10:46:52.265Z,24.70
2018-07-07T10:49:21.722Z,24.80
2018-07-07T10:51:51.192Z,24.90
2018-07-07T10:54:20.456Z,24.90
2018-07-07T10:56:49.800Z,24.90
2018-07-07T10:59:19.343Z,24.90
2018-07-07T11:01:48.857Z,25.00
2018-07-07T11:06:47.592Z,25.40
2018-07-07T11:09:17.427Z,25.60
2018-07-07T11:11:46.704Z,25.70
2018-07-07T11:14:16.483Z,25.70
2018-07-07T11:16:45.706Z,25.80
2018-07-07T11:19:15.561Z,26.00
2018-07-07T11:21:45.253Z,26.20
2018-07-07T11:24:15.039Z,26.40
2018-07-07T11:26:44.394Z,26.30
2018-07-07T11:29:14.036Z,26.10
2018-07-07T11:31:43.589Z,26.50
2018-07-07T11:34:12.857Z,28.30
2018-07-07T11:36:42.427Z,29.50
2018-07-07T11:39:11.859Z,30.60
2018-07-07T11:41:41.745Z,31.60
2018-07-07T11:44:11.313Z,32.20
2018-07-07T11:46:40.701Z,32.90
2018-07-07T11:49:10.476Z,33.60
2018-07-07T11:51:40.963Z,34.20
2018-07-07T11:54:10.338Z,34.60
2018-07-07T11:56:39.664Z,34.80
2018-07-07T11:59:08.953Z,35.60
2018-07-07T12:01:39.505Z,35.60
2018-07-07T12:04:09.121Z,35.60
2018-07-07T12:06:40.872Z,36.00
2018-07-07T12:09:10.204Z,36.10
2018-07-07T12:11:40.821Z,36.10
2018-07-07T12:14:14.250Z,36.30
2018-07-07T12:16:48.851Z,36.70
2018-07-07T12:19:20.045Z,36.80
2018-07-07T12:21:51.501Z,36.50
2018-07-07T12:24:29.670Z,35.80
2018-07-07T12:27:05.224Z,35.70
2018-07-07T12:29:35.685Z,35.80
2018-07-07T12:32:05.217Z,35.40
2018-07-07T12:34:34.502Z,34.10
2018-07-07T12:37:04.136Z,33.40
2018-07-07T12:39:34.026Z,34.10
2018-07-07T12:42:03.233Z,34.70
2018-07-07T12:44:33.608Z,35.80
2018-07-07T12:47:02.844Z,35.90
2018-07-07T12:49:32.628Z,36.30
2018-07-07T12:52:02.240Z,36.90
2018-07-07T12:54:32.276Z,37.90
2018-07-07T12:57:01.553Z,39.30
2018-07-07T12:59:30.869Z,39.10
2018-07-07T13:02:00.420Z,37.90
2018-07-07T13:04:30.904Z,38.50
2018-07-07T13:07:00.366Z,39.60
2018-07-07T13:09:29.625Z,40.10
2018-07-07T13:12:00.159Z,40.30
2018-07-07T13:14:30.264Z,40.70
2018-07-07T13:16:59.849Z,40.90
2018-07-07T13:19:29.576Z,40.50
2018-07-07T13:21:59.204Z,41.10
2018-07-07T13:24:28.497Z,41.50
2018-07-07T13:27:00.015Z,41.50
2018-07-07T13:29:29.550Z,42.20
2018-07-07T13:31:59.039Z,42.50
2018-07-07T13:34:28.580Z,42.60
2018-07-07T13:36:58.074Z,42.90
2018-07-07T13:39:27.381Z,43.00
2018-07-07T13:41:57.887Z,43.30
2018-07-07T13:44:27.692Z,43.60
2018-07-07T13:46:57.094Z,44.30
2018-07-07T13:49:26.456Z,45.00
2018-07-07T13:51:56.065Z,44.20
2018-07-07T13:54:25.612Z,42.90
2018-07-07T13:56:55.013Z,43.30
2018-07-07T13:59:26.443Z,44.20
2018-07-07T14:01:56.044Z,44.10
2018-07-07T14:04:25.783Z,43.30
2018-07-07T14:06:55.524Z,43.20
2018-07-07T14:09:25.249Z,43.50
2018-07-07T14:11:55.941Z,42.70
2018-07-07T14:14:26.677Z,42.90
2018-07-07T14:16:56.120Z,43.50
2018-07-07T14:19:26.648Z,44.40
2018-07-07T14:21:55.985Z,44.30
2018-07-07T14:24:25.453Z,43.50
2018-07-07T14:26:57.013Z,44.00
2018-07-07T14:29:26.316Z,44.90
2018-07-07T14:31:55.641Z,44.40
2018-07-07T14:34:25.703Z,42.80
2018-07-07T14:36:56.436Z,41.00
2018-07-07T14:39:29.961Z,39.20
2018-07-07T14:42:29.902Z,38.10
2018-07-07T14:44:59.358Z,38.50
2018-07-07T14:47:29.248Z,40.00
2018-07-07T14:49:58.856Z,41.30
2018-07-07T14:52:29.200Z,42.70
2018-07-07T14:54:58.704Z,44.00
2018-07-07T14:57:28.452Z,45.00
2018-07-07T14:59:58.113Z,45.40
2018-07-07T15:02:27.698Z,44.60
2018-07-07T15:04:58.163Z,44.10
2018-07-07T15:07:29.998Z,44.20
2018-07-07T15:09:59.569Z,43.80
2018-07-07T15:12:29.268Z,43.60
2018-07-07T15:14:59.152Z,44.00
2018-07-07T15:17:28.909Z,44.20
2018-07-07T15:19:58.583Z,43.60
2018-07-07T15:22:28.383Z,43.70
2018-07-07T15:24:58.918Z,43.00
2018-07-07T15:27:29.104Z,41.50
2018-07-07T15:30:03.970Z,41.80
2018-07-07T15:32:34.865Z,42.60
2018-07-07T15:35:04.381Z,43.50
2018-07-07T15:37:34.252Z,42.90
2018-07-07T15:40:05.466Z,42.80
2018-07-07T15:42:34.902Z,42.70
2018-07-07T15:45:04.845Z,41.50
2018-07-07T15:47:35.363Z,39.90
2018-07-07T15:50:05.689Z,39.80
2018-07-07T15:52:35.266Z,40.70
2018-07-07T15:55:04.680Z,41.00
2018-07-07T15:57:34.483Z,41.50
2018-07-07T16:00:05.944Z,41.80
2018-07-07T16:02:37.435Z,41.70
2018-07-07T16:05:07.796Z,41.30
2018-07-07T16:07:37.209Z,41.00
2018-07-07T16:10:06.520Z,41.70
2018-07-07T16:12:35.800Z,42.10
2018-07-07T16:15:05.418Z,42.10
2018-07-07T16:17:34.743Z,42.20
2018-07-07T16:20:05.257Z,41.20
2018-07-07T16:22:34.855Z,40.00
2018-07-07T16:25:05.372Z,39.80
2018-07-07T16:27:34.925Z,40.50
2018-07-07T16:30:04.761Z,41.30
2018-07-07T16:35:03.036Z,41.50
2018-07-07T16:37:32.506Z,40.50
2018-07-07T16:40:01.993Z,40.00
2018-07-07T16:42:31.720Z,39.70
2018-07-07T16:45:02.266Z,40.30
2018-07-07T16:47:32.041Z,40.70
2018-07-07T16:50:01.649Z,40.60
2018-07-07T16:52:31.127Z,40.80
2018-07-07T16:55:00.764Z,41.30
2018-07-07T16:57:30.412Z,41.80
2018-07-07T16:59:59.999Z,42.20
2018-07-07T17:02:33.730Z,42.00
2018-07-07T17:05:03.132Z,41.60
2018-07-07T17:07:32.477Z,41.30
2018-07-07T17:10:02.324Z,41.00
2018-07-07T17:12:32.879Z,41.10
2018-07-07T17:15:02.586Z,41.10
2018-07-07T17:17:33.320Z,41.30
2018-07-07T17:20:03.049Z,40.90
2018-07-07T17:22:32.585Z,40.80
2018-07-07T17:25:02.244Z,40.60
2018-07-07T17:27:32.819Z,40.40
2018-07-07T17:30:02.559Z,40.40
2018-07-07T17:32:31.949Z,40.30
2018-07-07T17:35:02.189Z,40.00
2018-07-07T17:37:31.745Z,40.10
2018-07-07T17:40:01.935Z,39.90
2018-07-07T17:42:31.831Z,39.40
2018-07-07T17:45:01.877Z,39.00
2018-07-07T17:47:31.513Z,39.10
2018-07-07T17:50:02.949Z,38.90
2018-07-07T17:55:04.345Z,38.40
2018-07-07T17:57:34.589Z,38.20
2018-07-07T18:00:04.306Z,38.10
2018-07-07T18:02:33.668Z,38.20
2018-07-07T18:05:03.541Z,38.10
2018-07-07T18:07:32.813Z,37.90
2018-07-07T18:10:03.620Z,37.60
2018-07-07T18:12:33.269Z,37.20
2018-07-07T18:15:02.633Z,36.70
2018-07-07T18:17:32.233Z,36.10
2018-07-07T18:20:02.014Z,35.20
2018-07-07T18:22:31.368Z,34.60
2018-07-07T18:25:01.988Z,34.20
2018-07-07T18:27:31.620Z,33.90
2018-07-07T18:30:01.184Z,33.70
2018-07-07T18:32:31.668Z,33.30
2018-07-07T18:35:01.320Z,33.10
2018-07-07T18:37:31.261Z,32.80
2018-07-07T18:40:00.849Z,32.50
2018-07-07T18:42:30.581Z,32.50
2018-07-07T18:45:00.053Z,32.30
2018-07-07T18:47:30.365Z,32.20
2018-07-07T18:49:59.917Z,32.00
2018-07-07T18:52:29.480Z,31.80
2018-07-07T18:54:59.072Z,31.70
2018-07-07T18:57:28.564Z,31.50
2018-07-07T18:59:57.997Z,31.30
2018-07-07T19:02:27.851Z,31.30
2018-07-07T19:04:57.372Z,31.10
2018-07-07T19:07:27.408Z,31.00
2018-07-07T19:09:56.721Z,30.80
2018-07-07T19:12:26.265Z,30.70
2018-07-07T19:15:26.109Z,30.50
2018-07-07T19:17:55.626Z,30.40
2018-07-07T19:20:30.160Z,30.20
2018-07-07T19:23:06.223Z,30.10
2018-07-07T19:25:40.781Z,29.90
2018-07-07T19:28:11.013Z,29.70
2018-07-07T19:30:41.490Z,29.60
2018-07-07T19:33:16.134Z,29.50
2018-07-07T19:35:50.874Z,29.40
2018-07-07T19:38:21.185Z,29.30
2018-07-07T19:40:50.545Z,29.20
2018-07-07T19:43:19.945Z,29.10
2018-07-07T19:45:49.495Z,29.00
2018-07-07T19:48:18.904Z,28.90
2018-07-07T19:50:48.565Z,28.80
2018-07-07T19:53:18.103Z,28.70
2018-07-07T19:55:47.516Z,28.60
2018-07-07T19:58:16.980Z,28.50
2018-07-07T20:00:46.393Z,28.40
2018-07-07T20:03:16.884Z,28.30
2018-07-07T20:05:46.962Z,28.20
2018-07-07T20:08:16.643Z,28.20
2018-07-07T20:10:45.980Z,28.10
2018-07-07T20:13:15.402Z,28.10
2018-07-07T20:16:17.108Z,28.00
2018-07-07T20:19:03.664Z,27.90
2018-07-07T20:21:49.354Z,27.70
2018-07-07T20:24:23.805Z,27.60
2018-07-07T20:26:58.409Z,27.50
2018-07-07T20:29:27.889Z,27.50
2018-07-07T20:31:57.344Z,27.50
2018-07-07T20:34:28.147Z,27.40
2018-07-07T20:36:57.533Z,27.30
2018-07-07T20:39:27.884Z,27.20
2018-07-07T20:41:57.767Z,27.10
2018-07-07T20:44:29.123Z,27.00
2018-07-07T20:46:58.837Z,26.80
2018-07-07T20:49:28.353Z,26.70
2018-07-07T20:51:59.148Z,26.60
2018-07-07T20:54:28.550Z,26.50
2018-07-07T20:56:57.935Z,26.50
2018-07-07T20:59:27.169Z,26.40
2018-07-07T21:01:56.465Z,26.40
2018-07-07T21:04:25.788Z,26.20
2018-07-07T21:06:55.269Z,26.10
2018-07-07T21:09:24.486Z,25.90
2018-07-07T21:11:53.961Z,25.90
2018-07-07T21:14:23.616Z,25.80
2018-07-07T21:16:52.867Z,25.80
2018-07-07T21:19:22.120Z,25.70
2018-07-07T21:24:20.943Z,25.60
2018-07-07T21:26:50.548Z,25.50
2018-07-07T21:29:23.122Z,25.40
2018-07-07T21:31:54.929Z,25.40
2018-07-07T21:34:25.590Z,25.30
2018-07-07T21:36:56.204Z,25.20
2018-07-07T21:39:25.710Z,25.20
2018-07-07T21:41:55.057Z,25.20
2018-07-07T21:44:24.420Z,25.10
2018-07-07T21:46:53.881Z,25.10
2018-07-07T21:49:23.622Z,25.10
2018-07-07T21:51:53.384Z,25.10
2018-07-07T21:54:23.103Z,25.10
2018-07-07T21:56:54.837Z,24.90
2018-07-07T21:59:24.888Z,24.80
2018-07-07T22:01:59.821Z,24.70
2018-07-07T22:04:36.937Z,24.60
2018-07-07T22:07:12.883Z,24.50
2018-07-07T22:09:42.841Z,24.50
2018-07-07T22:12:12.084Z,24.40
2018-07-07T22:14:41.344Z,24.40
2018-07-07T22:17:10.581Z,24.40
2018-07-07T22:19:39.843Z,24.50
2018-07-07T22:22:10.122Z,24.50
2018-07-07T22:24:40.521Z,24.40
2018-07-07T22:27:11.580Z,24.30
2018-07-07T22:29:40.801Z,24.30
2018-07-07T22:32:15.340Z,24.10
2018-07-07T22:34:44.660Z,24.00
2018-07-07T22:37:14.987Z,23.90
2018-07-07T22:39:44.948Z,23.70
2018-07-07T22:42:16.327Z,23.70
2018-07-07T22:44:47.447Z,23.70
2018-07-07T22:47:16.716Z,23.70
2018-07-07T22:49:46.150Z,23.70
2018-07-07T22:52:15.432Z,23.60
2018-07-07T22:54:45.081Z,23.50
2018-07-07T22:57:14.310Z,23.40
2018-07-07T22:59:43.569Z,23.20
2018-07-07T23:02:12.781Z,23.20
2018-07-07T23:04:42.257Z,23.10
2018-07-07T23:07:11.830Z,23.10
2018-07-07T23:09:41.189Z,23.00
2018-07-07T23:12:10.437Z,22.90
2018-07-07T23:14:39.775Z,22.90
2018-07-07T23:17:09.073Z,22.90
2018-07-07T23:19:38.276Z,22.80
2018-07-07T23:22:07.521Z,22.80
2018-07-07T23:27:05.880Z,22.70
2018-07-07T23:29:35.477Z,22.70
2018-07-07T23:32:04.783Z,22.70
2018-07-07T23:34:34.036Z,22.70
2018-07-07T23:39:32.144Z,22.50
2018-07-07T23:42:01.366Z,22.40
2018-07-07T23:44:30.618Z,22.30
2018-07-07T23:49:28.649Z,22.30
2018-07-07T23:51:57.989Z,22.30
2018-07-07T23:54:27.229Z,22.10
2018-07-07T23:56:56.976Z,22.10
2018-07-07T23:59:26.213Z,21.90
